Time;durP1;ratioP1;P1;durP2;ratioP2;P2;SDS_P1;SDS_P2;PMS_P1;PMS_P2;Temp;Humidity;BMP_temperature;BMP_pressure;BME280_temperature;BME280_humidity;BME280_pressure;Samples;Min_cycle;Max_cycle;Signal;HPM_P1;HPM_P2
2022/09/17 00:01:21;;;;;;;10.57;2.40;;;;;;;15.36;58.26;101165.50;5076770;28;20067;-64
2022/09/17 00:03:55;;;;;;;13.63;2.67;;;;;;;15.34;58.07;101166.63;5075291;28;20517;-65
2022/09/17 00:06:24;;;;;;;10.50;3.25;;;;;;;15.33;58.16;101168.47;5081909;28;20105;-64
2022/09/17 00:08:51;;;;;;;12.02;2.65;;;;;;;15.31;58.17;101169.59;5085037;28;20033;-65
2022/09/17 00:11:29;;;;;;;9.98;2.30;;;;;;;15.30;58.07;101160.63;5073830;28;20041;-65
2022/09/17 00:13:58;;;;;;;7.22;2.22;;;;;;;15.30;58.34;101178.69;5074758;28;20040;-65
2022/09/17 00:16:37;;;;;;;12.95;2.30;;;;;;;15.28;58.17;101178.84;5084623;28;20052;-65
2022/09/17 00:19:09;;;;;;;10.55;2.97;;;;;;;15.29;58.38;101183.25;5073747;28;20041;-65
2022/09/17 00:21:35;;;;;;;7.45;2.25;;;;;;;15.29;58.35;101183.25;5075595;28;20190;-66
2022/09/17 00:24:05;;;;;;;9.95;2.53;;;;;;;15.30;58.34;101187.69;5093885;28;20082;-65
2022/09/17 00:26:32;;;;;;;10.68;2.50;;;;;;;15.29;58.38;101195.94;5093489;28;20444;-64
2022/09/17 00:29:00;;;;;;;10.07;2.45;;;;;;;15.26;58.27;101192.50;5081552;28;20047;-65
2022/09/17 00:31:28;;;;;;;9.57;3.05;;;;;;;15.26;58.63;101188.94;5086387;28;20040;-65
2022/09/17 00:33:55;;;;;;;8.48;2.15;;;;;;;15.29;58.50;101201.34;5093302;28;20048;-64
2022/09/17 00:36:22;;;;;;;8.70;2.60;;;;;;;15.29;58.32;101201.34;5077062;28;20094;-64
2022/09/17 00:38:54;;;;;;;10.60;2.75;;;;;;;15.29;58.48;101201.34;5085141;28;20094;-65
2022/09/17 00:41:23;;;;;;;11.00;2.42;;;;;;;15.30;58.54;101203.06;5093316;28;20071;-65
2022/09/17 00:43:56;;;;;;;9.50;2.63;;;;;;;15.30;58.46;101203.91;5093014;28;20036;-65
2022/09/17 00:46:32;;;;;;;12.10;2.33;;;;;;;15.31;58.73;101208.34;5073777;28;20305;-65
2022/09/17 00:49:03;;;;;;;18.13;3.10;;;;;;;15.31;58.86;101205.63;5073508;28;20479;-65
2022/09/17 00:51:36;;;;;;;7.25;2.03;;;;;;;15.32;58.47;101209.19;5073114;28;20552;-65
2022/09/17 00:54:09;;;;;;;7.88;1.98;;;;;;;15.32;58.63;101217.31;5078553;28;20040;-65
2022/09/17 00:56:38;;;;;;;10.18;2.97;;;;;;;15.33;58.96;101219.03;5093248;28;20105;-65
2022/09/17 00:59:05;;;;;;;11.50;2.40;;;;;;;15.31;58.65;101211.03;5092680;28;20112;-65
2022/09/17 01:01:32;;;;;;;5.18;1.58;;;;;;;15.31;58.81;101208.34;5092188;28;20448;-65
2022/09/17 01:03:59;;;;;;;11.00;2.97;;;;;;;15.31;58.60;101207.47;5091210;28;20040;-66
2022/09/17 01:07:01;;;;;;;11.43;2.03;;;;;;;15.32;58.47;101211.91;5093212;28;20039;-65
2022/09/17 01:09:40;;;;;;;6.80;2.25;;;;;;;15.33;58.70;101210.91;5074871;28;20098;-65
2022/09/17 01:12:28;;;;;;;9.98;2.13;;;;;;;15.35;58.63;101209.78;5072802;28;20045;-66
2022/09/17 01:15:24;;;;;;;9.68;2.20;;;;;;;15.31;58.57;101216.47;5090984;28;20040;-65
2022/09/17 01:18:05;;;;;;;9.00;1.83;;;;;;;15.26;58.79;101213.28;5070728;28;20032;-65
2022/09/17 01:20:41;;;;;;;9.85;2.08;;;;;;;15.23;58.73;101213.53;5072365;28;20121;-65
2022/09/17 01:23:40;;;;;;;6.80;2.10;;;;;;;15.20;59.08;101217.38;5072349;28;20040;-65
2022/09/17 01:26:28;;;;;;;11.77;2.63;;;;;;;15.18;58.85;101216.63;5060773;28;20056;-65
2022/09/17 01:29:11;;;;;;;9.00;2.30;;;;;;;15.18;59.02;101213.94;5068148;28;20066;-65
2022/09/17 01:31:53;;;;;;;11.95;2.13;;;;;;;15.17;58.91;101214.06;5070621;28;20041;-65
2022/09/17 01:35:00;;;;;;;9.13;2.45;;;;;;;15.15;58.98;101226.88;5072128;28;20094;-65
2022/09/17 01:37:40;;;;;;;11.52;2.20;;;;;;;15.16;58.93;101234.84;5010513;28;20106;-66
2022/09/17 01:40:14;;;;;;;12.93;2.40;;;;;;;15.15;58.64;101230.44;5068308;28;20101;-65
2022/09/17 01:42:51;;;;;;;9.52;2.30;;;;;;;15.16;59.00;101234.84;5063181;28;20045;-65
2022/09/17 01:45:29;;;;;;;10.23;2.30;;;;;;;15.14;59.00;101234.13;5072634;28;20044;-64
2022/09/17 01:48:04;;;;;;;7.53;2.30;;;;;;;15.13;58.74;101242.38;5071229;28;20101;-64
2022/09/17 01:50:41;;;;;;;10.45;2.15;;;;;;;15.11;58.53;101247.91;5058570;28;20045;-65
2022/09/17 01:53:09;;;;;;;9.75;2.30;;;;;;;15.12;58.62;101246.06;5061645;28;20099;-65
2022/09/17 01:55:39;;;;;;;10.48;3.08;;;;;;;15.12;58.71;101246.91;5057469;28;20083;-65
2022/09/17 01:58:44;;;;;;;13.00;1.90;;;;;;;15.09;58.74;101241.75;5061937;28;20107;-65
2022/09/17 02:01:16;;;;;;;10.32;2.40;;;;;;;15.10;58.85;101243.47;4970659;28;20549;-66
2022/09/17 02:03:55;;;;;;;11.60;2.03;;;;;;;15.11;58.81;101233.53;5040078;28;20124;-64
2022/09/17 02:06:28;;;;;;;10.63;2.00;;;;;;;15.10;58.84;101237.22;5051869;28;20106;-66
2022/09/17 02:09:20;;;;;;;8.50;2.20;;;;;;;15.08;58.65;101231.06;5051917;28;20041;-65
2022/09/17 02:11:54;;;;;;;8.88;2.30;;;;;;;15.07;58.92;101241.03;5066805;28;20046;-65
2022/09/17 02:14:27;;;;;;;9.38;1.70;;;;;;;15.05;58.80;101243.00;5051557;28;20045;-65
2022/09/17 02:17:05;;;;;;;8.95;1.75;;;;;;;15.04;58.58;101244.00;5051772;28;20052;-66
2022/09/17 02:19:37;;;;;;;8.77;2.15;;;;;;;15.04;58.64;101246.69;5051597;28;20087;-65
2022/09/17 02:22:29;;;;;;;9.07;1.90;;;;;;;15.01;58.56;101246.09;5067638;28;20329;-66
2022/09/17 02:25:05;;;;;;;7.47;1.52;;;;;;;15.00;58.74;101250.66;5068419;28;20506;-65
2022/09/17 02:27:46;;;;;;;9.43;2.30;;;;;;;15.01;58.67;101255.06;5051488;28;20032;-66
2022/09/17 02:30:14;;;;;;;7.88;2.05;;;;;;;15.03;58.63;101252.25;5056755;28;20040;-66
2022/09/17 02:32:41;;;;;;;11.10;2.05;;;;;;;15.06;58.78;101260.09;5071153;28;20436;-65
2022/09/17 02:35:09;;;;;;;10.23;2.42;;;;;;;15.05;58.95;101258.38;5070739;28;20093;-66
2022/09/17 02:37:36;;;;;;;9.57;1.65;;;;;;;15.05;58.88;101259.25;5060467;28;20045;-65
2022/09/17 02:40:04;;;;;;;4.68;2.22;;;;;;;15.06;58.57;101255.53;5051735;28;20045;-66
2022/09/17 02:42:50;;;;;;;15.63;2.38;;;;;;;15.07;58.86;101259.13;5066616;28;20505;-67
2022/09/17 02:45:26;;;;;;;6.55;1.80;;;;;;;15.09;58.42;101268.81;5037596;28;20052;-66
2022/09/17 02:48:31;;;;;;;8.32;2.30;;;;;;;15.08;58.44;101263.53;5068630;28;20033;-66
2022/09/17 02:51:12;;;;;;;4.88;1.83;;;;;;;15.07;58.28;101262.69;5069066;28;20456;-66
2022/09/17 02:53:55;;;;;;;8.23;2.25;;;;;;;15.09;58.47;101260.69;5062862;28;20049;-66
2022/09/17 02:56:54;;;;;;;12.82;1.80;;;;;;;15.10;58.68;101262.41;5051168;28;20049;-65
2022/09/17 02:59:27;;;;;;;9.98;1.83;;;;;;;15.12;58.33;101259.59;5050995;28;20051;-64
2022/09/17 03:02:02;;;;;;;10.27;2.10;;;;;;;15.11;58.73;101257.88;5050825;28;20041;-65
2022/09/17 03:04:30;;;;;;;9.03;1.67;;;;;;;15.09;58.20;101260.69;5058550;28;20049;-64
2022/09/17 03:06:58;;;;;;;12.25;2.30;;;;;;;15.08;58.62;101264.41;5070676;28;20044;-64
2022/09/17 03:09:25;;;;;;;9.00;2.10;;;;;;;15.07;58.38;101268.09;5062769;28;20403;-65
2022/09/17 03:11:51;;;;;;;10.23;1.83;;;;;;;15.05;58.45;101263.78;5055074;28;20102;-65
2022/09/17 03:14:19;;;;;;;6.95;1.98;;;;;;;15.02;58.42;101264.03;5070083;28;20185;-64
2022/09/17 03:16:46;;;;;;;9.73;1.83;;;;;;;15.00;58.84;101263.31;5074651;28;20061;-63
2022/09/17 03:19:13;;;;;;;8.70;1.80;;;;;;;14.99;58.99;101264.31;5093756;28;20097;-64
2022/09/17 03:21:39;;;;;;;10.82;1.92;;;;;;;15.00;58.96;101261.47;5091348;28;20040;-64
2022/09/17 03:24:10;;;;;;;9.57;1.63;;;;;;;15.00;58.87;101255.19;5074936;28;20064;-64
2022/09/17 03:26:38;;;;;;;10.10;1.80;;;;;;;14.98;58.90;101255.31;5074912;28;20044;-64
2022/09/17 03:29:04;;;;;;;8.00;1.70;;;;;;;14.97;58.68;101256.31;5074886;28;20093;-64
2022/09/17 03:31:31;;;;;;;7.32;2.15;;;;;;;14.97;58.73;101252.75;5075675;28;21400;-64
2022/09/17 03:33:59;;;;;;;6.75;2.33;;;;;;;14.97;58.86;101256.31;5074897;28;20032;-64
2022/09/17 03:36:26;;;;;;;9.38;2.10;;;;;;;14.99;58.67;101254.34;5082141;28;20089;-63
2022/09/17 03:38:54;;;;;;;9.40;1.98;;;;;;;15.00;59.00;101255.19;5095199;28;20090;-63
2022/09/17 03:41:21;;;;;;;8.85;2.00;;;;;;;14.99;58.64;101251.63;5094194;28;20509;-64
2022/09/17 03:43:50;;;;;;;10.60;1.90;;;;;;;14.99;58.52;101251.63;5087122;28;20040;-64
2022/09/17 03:46:17;;;;;;;10.57;2.22;;;;;;;15.00;58.59;101255.19;5093534;28;20448;-64
2022/09/17 03:48:44;;;;;;;9.25;1.45;;;;;;;14.99;58.63;101256.19;5094447;28;20068;-63
2022/09/17 03:51:11;;;;;;;7.68;2.00;;;;;;;14.98;58.91;101252.63;5082617;28;20532;-64
2022/09/17 03:53:38;;;;;;;7.45;1.67;;;;;;;15.00;58.72;101260.59;5074458;28;20095;-64
2022/09/17 03:56:05;;;;;;;9.52;1.80;;;;;;;15.00;59.11;101260.59;5092798;28;20040;-64
2022/09/17 03:58:32;;;;;;;10.13;1.90;;;;;;;15.03;58.95;101260.34;5094356;28;20073;-65
2022/09/17 04:00:59;;;;;;;9.45;2.63;;;;;;;15.03;58.91;101261.22;5094599;28;20520;-64
2022/09/17 04:03:31;;;;;;;7.88;1.65;;;;;;;15.07;58.71;101257.25;5093720;28;20071;-64
2022/09/17 04:05:57;;;;;;;10.70;2.03;;;;;;;15.08;58.99;101258.13;5078115;28;20045;-65
2022/09/17 04:08:24;;;;;;;8.65;1.45;;;;;;;15.10;59.05;101266.97;5073992;28;20079;-64
2022/09/17 04:10:50;;;;;;;5.68;1.40;;;;;;;15.13;58.97;101264.88;5073898;28;20098;-64
2022/09/17 04:13:17;;;;;;;5.40;1.80;;;;;;;15.13;59.11;101264.88;5073912;28;20142;-65
2022/09/17 04:15:44;;;;;;;7.88;1.70;;;;;;;15.15;58.98;101267.44;5090990;28;20044;-64
2022/09/17 04:18:12;;;;;;;12.05;2.05;;;;;;;15.14;58.84;101266.59;5093805;28;20036;-65
2022/09/17 04:20:39;;;;;;;10.20;1.80;;;;;;;15.13;58.94;101264.88;5074106;28;20044;-65
2022/09/17 04:23:06;;;;;;;10.05;2.05;;;;;;;15.13;58.95;101270.28;5073448;28;20106;-64
2022/09/17 04:25:32;;;;;;;12.57;2.88;;;;;;;15.13;58.61;101272.97;5075208;28;20059;-64
2022/09/17 04:27:59;;;;;;;6.78;1.60;;;;;;;15.13;58.44;101272.97;5091888;28;20032;-64
2022/09/17 04:30:25;;;;;;;9.18;1.42;;;;;;;15.13;58.85;101275.69;5092570;28;20375;-64
2022/09/17 04:32:52;;;;;;;7.20;2.05;;;;;;;15.15;58.93;101275.56;5075141;28;20048;-64
2022/09/17 04:35:20;;;;;;;7.50;2.03;;;;;;;15.15;58.56;101281.81;5093350;28;20436;-65
2022/09/17 04:37:54;;;;;;;8.45;1.60;;;;;;;15.15;58.26;101278.25;5080689;28;20036;-65
2022/09/17 04:40:22;;;;;;;5.75;1.60;;;;;;;15.13;58.48;101281.09;5077872;28;20040;-64
2022/09/17 04:42:52;;;;;;;8.73;1.67;;;;;;;15.12;58.18;101284.78;5073121;28;20044;-64
2022/09/17 04:45:19;;;;;;;5.82;1.70;;;;;;;15.09;58.21;101279.63;5075284;28;20094;-64
2022/09/17 04:47:46;;;;;;;9.43;2.05;;;;;;;15.08;58.34;101296.00;5080245;28;20035;-65
2022/09/17 04:50:12;;;;;;;5.75;1.25;;;;;;;15.05;57.90;101289.00;5086355;28;20098;-64
2022/09/17 04:52:43;;;;;;;8.95;1.73;;;;;;;15.03;58.01;101290.09;5086074;28;20040;-65
2022/09/17 04:55:11;;;;;;;5.43;1.70;;;;;;;14.99;58.23;101284.09;5091895;28;20036;-64
2022/09/17 04:57:38;;;;;;;7.68;1.65;;;;;;;14.94;58.00;101283.59;5093066;28;20048;-64
2022/09/17 05:00:08;;;;;;;5.15;1.48;;;;;;;14.90;58.06;101288.41;5092837;28;20052;-64
2022/09/17 05:02:35;;;;;;;6.13;1.75;;;;;;;14.86;57.92;101283.34;5081356;28;20045;-65
2022/09/17 05:05:02;;;;;;;4.00;1.48;;;;;;;14.83;57.98;101289.00;5074140;28;20082;-64
2022/09/17 05:07:29;;;;;;;7.10;1.88;;;;;;;14.79;58.28;101284.84;5055179;28;20048;-65
2022/09/17 05:09:55;;;;;;;7.47;1.45;;;;;;;14.76;58.48;101285.94;5072761;28;20040;-65
2022/09/17 05:12:22;;;;;;;7.20;1.45;;;;;;;14.74;58.44;101284.34;5077989;28;20040;-65
2022/09/17 05:14:49;;;;;;;5.93;1.70;;;;;;;14.75;58.13;101291.47;5092849;28;20059;-64
2022/09/17 05:17:16;;;;;;;6.38;1.75;;;;;;;14.71;58.43;101287.31;5078619;28;20052;-64
2022/09/17 05:19:42;;;;;;;11.95;1.77;;;;;;;14.70;58.23;101301.81;5090397;28;20456;-65
2022/09/17 05:22:09;;;;;;;11.43;1.85;;;;;;;14.70;58.50;101299.09;5088254;28;20040;-65
2022/09/17 05:24:38;;;;;;;7.85;1.65;;;;;;;14.71;58.25;101298.97;5092625;28;20093;-64
2022/09/17 05:27:06;;;;;;;5.63;1.45;;;;;;;14.71;58.56;101298.13;5072916;28;20449;-64
2022/09/17 05:29:32;;;;;;;5.00;1.60;;;;;;;14.70;58.40;101307.22;5092301;28;20316;-64
2022/09/17 05:31:59;;;;;;;5.15;1.73;;;;;;;14.67;58.45;101311.03;5090617;28;20044;-65
2022/09/17 05:34:25;;;;;;;10.57;1.70;;;;;;;14.66;58.30;101313.84;5072428;28;20052;-65
2022/09/17 05:36:52;;;;;;;4.22;1.60;;;;;;;14.65;58.58;101306.72;5086038;28;20106;-65
2022/09/17 05:39:21;;;;;;;17.48;2.30;;;;;;;14.66;58.71;101308.44;5091491;28;20098;-65
2022/09/17 05:41:48;;;;;;;11.18;1.70;;;;;;;14.66;58.63;101305.75;5092376;28;20109;-65
2022/09/17 05:44:15;;;;;;;8.32;1.80;;;;;;;14.66;58.30;101306.59;5092415;28;20044;-64
2022/09/17 05:46:44;;;;;;;6.65;1.80;;;;;;;14.67;58.35;101311.03;5090470;28;20047;-65
2022/09/17 05:49:13;;;;;;;6.13;1.50;;;;;;;14.68;58.54;101314.59;5073631;28;20036;-64
2022/09/17 05:51:40;;;;;;;6.00;1.55;;;;;;;14.68;58.75;101315.44;5087879;28;20040;-65
2022/09/17 05:54:11;;;;;;;7.90;1.70;;;;;;;14.67;58.59;101321.84;5072148;28;20059;-65
2022/09/17 05:56:37;;;;;;;7.38;1.60;;;;;;;14.67;58.84;101329.09;5071656;28;20052;-65
2022/09/17 05:59:04;;;;;;;9.25;2.10;;;;;;;14.67;58.75;101329.09;5072927;28;20513;-65
2022/09/17 06:01:31;;;;;;;9.07;1.60;;;;;;;14.66;58.49;101332.78;5071666;28;20078;-65
2022/09/17 06:04:01;;;;;;;12.63;2.05;;;;;;;14.67;58.77;101335.34;5077984;28;20390;-65
2022/09/17 06:06:29;;;;;;;8.23;1.45;;;;;;;14.67;58.49;101338.06;5091521;28;20546;-66
2022/09/17 06:08:59;;;;;;;10.02;1.70;;;;;;;14.68;58.95;101337.09;5090591;28;20177;-66
2022/09/17 06:11:26;;;;;;;10.05;2.08;;;;;;;14.71;58.67;101338.69;5090118;28;20047;-65
2022/09/17 06:13:57;;;;;;;11.32;2.30;;;;;;;14.72;58.83;101343.97;5091539;28;20085;-65
2022/09/17 06:16:23;;;;;;;5.88;1.55;;;;;;;14.77;58.81;101346.28;5090226;28;20078;-66
2022/09/17 06:18:51;;;;;;;5.78;1.65;;;;;;;14.80;58.50;101349.59;5080465;28;20505;-65
2022/09/17 06:21:20;;;;;;;10.52;1.80;;;;;;;14.84;58.71;101348.38;5071282;28;20052;-65
2022/09/17 06:23:51;;;;;;;7.97;1.77;;;;;;;14.89;59.15;101350.75;5084786;28;20559;-65
2022/09/17 06:26:18;;;;;;;7.63;1.85;;;;;;;14.91;58.85;101349.63;5071351;28;20430;-65
2022/09/17 06:28:44;;;;;;;9.80;1.73;;;;;;;14.97;58.96;101355.53;5072522;28;20086;-66
2022/09/17 06:31:12;;;;;;;13.15;1.67;;;;;;;15.00;58.65;101355.28;5053399;28;20040;-66
2022/09/17 06:33:40;;;;;;;10.30;1.95;;;;;;;15.03;58.75;101355.03;5071291;28;20040;-66
2022/09/17 06:36:10;;;;;;;7.80;1.77;;;;;;;15.07;58.96;101351.94;5072369;28;20043;-66
2022/09/17 06:38:40;;;;;;;8.65;1.65;;;;;;;15.14;59.08;101355.88;5072444;28;20056;-67
2022/09/17 06:41:07;;;;;;;7.72;2.03;;;;;;;15.21;58.78;101354.38;5054919;28;20067;-66
2022/09/17 06:43:35;;;;;;;7.93;1.92;;;;;;;15.28;58.85;101349.31;5053804;28;20048;-65
2022/09/17 06:46:07;;;;;;;9.23;2.13;;;;;;;15.34;58.97;101347.94;5071694;28;20040;-65
2022/09/17 06:48:36;;;;;;;6.75;1.95;;;;;;;15.39;58.73;101345.72;5071084;28;20044;-65
2022/09/17 06:51:05;;;;;;;5.65;1.60;;;;;;;15.46;58.95;101344.22;5071508;28;20048;-65
2022/09/17 06:53:37;;;;;;;6.25;1.63;;;;;;;15.52;58.65;101349.09;5069956;28;20068;-66
2022/09/17 06:56:05;;;;;;;10.80;2.05;;;;;;;15.58;58.25;101352.19;5070611;28;20052;-65
2022/09/17 06:58:36;;;;;;;10.55;2.28;;;;;;;15.65;58.23;101344.44;5070893;28;20037;-66
2022/09/17 07:01:03;;;;;;;6.65;2.03;;;;;;;15.73;58.27;101350.06;5089816;28;20448;-65
2022/09/17 07:03:42;;;;;;;5.85;1.65;;;;;;;15.81;58.24;101352.13;5091064;28;20446;-66
2022/09/17 07:06:09;;;;;;;5.45;1.65;;;;;;;15.89;58.38;101350.47;5090688;28;20052;-65
2022/09/17 07:08:36;;;;;;;10.80;2.50;;;;;;;15.98;58.22;101350.69;5073108;28;20093;-65
2022/09/17 07:11:03;;;;;;;11.50;1.67;;;;;;;16.05;58.24;101358.16;5085558;28;20102;-65
2022/09/17 07:13:33;;;;;;;6.95;1.50;;;;;;;16.14;58.10;101357.38;5081765;28;20067;-64
2022/09/17 07:16:01;;;;;;;7.97;1.90;;;;;;;16.25;58.29;101356.44;5075029;28;20041;-64
2022/09/17 07:18:29;;;;;;;4.78;1.75;;;;;;;16.39;58.12;101355.25;5063278;28;20110;-64
2022/09/17 07:20:58;;;;;;;5.68;1.50;;;;;;;16.53;57.56;101355.75;5066588;28;20033;-64
2022/09/17 07:23:34;;;;;;;5.78;1.42;;;;;;;16.69;57.85;101354.44;5070355;28;20470;-67
2022/09/17 07:26:07;;;;;;;5.93;1.30;;;;;;;16.88;57.78;101354.50;5069491;28;20083;-64
2022/09/17 07:28:34;;;;;;;5.65;1.75;;;;;;;17.04;57.17;101357.56;5070689;28;20049;-64
2022/09/17 07:31:04;;;;;;;6.78;1.40;;;;;;;17.17;56.79;101356.50;5068953;28;20102;-64
2022/09/17 07:33:36;;;;;;;10.40;1.50;;;;;;;17.29;56.66;101360.81;5070239;28;20037;-64
2022/09/17 07:36:06;;;;;;;5.43;1.48;;;;;;;17.40;56.21;101357.97;5070239;28;20040;-63
2022/09/17 07:38:34;;;;;;;7.07;1.27;;;;;;;17.48;55.99;101355.41;5070589;28;20433;-63
2022/09/17 07:41:03;;;;;;;7.53;1.17;;;;;;;17.60;55.50;101361.56;5070512;28;20075;-64
2022/09/17 07:43:34;;;;;;;7.13;1.20;;;;;;;17.70;55.50;101355.16;5070588;28;20044;-65
2022/09/17 07:46:03;;;;;;;4.45;0.93;;;;;;;17.83;55.14;101354.88;5070374;28;20491;-64
2022/09/17 07:48:30;;;;;;;4.20;1.13;;;;;;;17.93;54.81;101355.75;5070643;28;20062;-65
2022/09/17 07:50:57;;;;;;;2.75;1.10;;;;;;;17.99;54.41;101344.31;5070528;28;20498;-64
2022/09/17 07:53:24;;;;;;;4.03;1.00;;;;;;;18.05;54.57;101342.88;5070199;28;20075;-66
2022/09/17 07:55:59;;;;;;;6.55;1.73;;;;;;;18.09;53.89;101347.88;5063301;28;20037;-66
2022/09/17 07:58:31;;;;;;;6.32;1.10;;;;;;;18.13;53.84;101345.72;5073237;28;20033;-65
2022/09/17 08:01:07;;;;;;;5.20;1.30;;;;;;;18.17;53.69;101349.00;5073818;28;20490;-65
2022/09/17 08:03:38;;;;;;;6.15;1.10;;;;;;;18.21;53.30;101348.56;5074144;28;20505;-65
2022/09/17 08:06:14;;;;;;;4.85;1.02;;;;;;;18.28;53.72;101354.28;5072130;28;20076;-65
2022/09/17 08:08:41;;;;;;;6.57;1.10;;;;;;;18.37;53.57;101356.97;5074111;28;20048;-65
2022/09/17 08:11:09;;;;;;;3.88;1.00;;;;;;;18.45;53.13;101360.81;5073973;28;20044;-65
2022/09/17 08:13:39;;;;;;;5.50;1.17;;;;;;;18.50;52.94;101355.78;5073716;28;20114;-66
2022/09/17 08:16:08;;;;;;;4.00;1.23;;;;;;;18.52;52.79;101367.38;5061284;28;20453;-65
2022/09/17 08:18:35;;;;;;;4.63;0.93;;;;;;;18.54;52.47;101368.09;5083437;28;20446;-65
2022/09/17 08:21:05;;;;;;;4.57;1.00;;;;;;;18.52;52.60;101367.38;5094067;28;20047;-64
2022/09/17 08:23:35;;;;;;;4.93;1.23;;;;;;;18.54;52.28;101371.66;5092033;28;20032;-65
2022/09/17 08:26:02;;;;;;;3.72;1.00;;;;;;;18.58;51.85;101369.50;5085275;28;20453;-65
2022/09/17 08:28:30;;;;;;;3.83;0.93;;;;;;;18.64;51.53;101363.53;5073606;28;20072;-66
2022/09/17 08:31:01;;;;;;;3.88;1.10;;;;;;;18.71;51.86;101360.06;5073762;28;20098;-65
2022/09/17 08:33:33;;;;;;;6.97;1.20;;;;;;;18.81;51.60;101368.19;5074315;28;20040;-65
2022/09/17 08:36:00;;;;;;;5.03;1.00;;;;;;;18.84;51.20;101375.19;5055965;28;20045;-65
2022/09/17 08:38:29;;;;;;;6.72;1.05;;;;;;;18.82;51.50;101375.34;5073323;28;20556;-65
2022/09/17 08:41:21;;;;;;;6.95;1.73;;;;;;;18.78;51.03;101373.94;5073119;28;20120;-65
2022/09/17 08:44:12;;;;;;;4.72;1.40;;;;;;;18.82;51.04;101374.50;5076264;28;20453;-64
2022/09/17 08:46:49;;;;;;;3.97;1.10;;;;;;;18.89;51.04;101370.16;5072918;28;20064;-64
2022/09/17 08:49:38;;;;;;;3.95;0.95;;;;;;;18.96;51.17;101372.13;5073392;28;20040;-64
2022/09/17 08:52:05;;;;;;;6.78;1.42;;;;;;;19.05;51.42;101370.38;5073008;28;20086;-64
2022/09/17 08:54:55;;;;;;;4.40;1.65;;;;;;;19.13;50.96;101373.19;5084883;28;20052;-64
2022/09/17 08:57:49;;;;;;;5.55;1.33;;;;;;;19.19;50.41;101374.44;5091532;28;20036;-64
2022/09/17 09:00:20;;;;;;;4.82;1.13;;;;;;;19.22;50.58;101369.56;5072848;28;20478;-64
2022/09/17 09:03:10;;;;;;;3.97;1.30;;;;;;;19.32;50.60;101364.03;5072638;28;20048;-64
2022/09/17 09:05:49;;;;;;;7.03;1.08;;;;;;;19.42;50.01;101369.47;5071987;28;20045;-65
2022/09/17 09:08:27;;;;;;;5.18;0.90;;;;;;;19.51;50.03;101372.13;5072704;28;20048;-66
2022/09/17 09:11:00;;;;;;;6.35;1.08;;;;;;;19.55;49.88;101368.13;5073610;28;20057;-66
2022/09/17 09:13:38;;;;;;;4.90;1.35;;;;;;;19.56;49.29;101374.41;5072530;28;20445;-66
2022/09/17 09:16:14;;;;;;;3.70;1.02;;;;;;;19.62;49.74;101363.75;5072737;28;20076;-65
2022/09/17 09:18:41;;;;;;;5.75;1.30;;;;;;;19.73;49.48;101370.84;5072526;28;20048;-65
2022/09/17 09:21:26;;;;;;;5.60;1.13;;;;;;;19.82;49.49;101369.03;5073726;28;20072;-65
2022/09/17 09:24:04;;;;;;;4.38;0.98;;;;;;;19.87;49.38;101374.88;5054543;28;20498;-66
2022/09/17 09:26:44;;;;;;;3.20;0.70;;;;;;;19.86;48.90;101368.56;5072709;28;20060;-65
2022/09/17 09:29:28;;;;;;;4.93;1.13;;;;;;;19.85;48.56;101375.03;5073913;28;20348;-65
2022/09/17 09:32:20;;;;;;;6.65;1.27;;;;;;;19.81;48.83;101372.78;5072163;28;20051;-64
2022/09/17 09:34:53;;;;;;;8.25;1.17;;;;;;;19.79;48.29;101363.91;5072672;28;20080;-65
2022/09/17 09:37:32;;;;;;;5.60;1.17;;;;;;;19.75;48.63;101351.59;5071800;28;20056;-65
2022/09/17 09:40:12;;;;;;;5.50;1.23;;;;;;;19.75;48.51;101357.06;5073306;28;20498;-64
2022/09/17 09:42:39;;;;;;;5.65;1.27;;;;;;;19.76;48.36;101353.31;5053527;28;20510;-65
2022/09/17 09:45:16;;;;;;;7.50;1.30;;;;;;;19.77;48.46;101355.03;5072212;28;20090;-65
2022/09/17 09:48:05;;;;;;;4.70;1.00;;;;;;;19.76;47.98;101370.53;5071903;28;20048;-65
2022/09/17 09:50:45;;;;;;;5.50;1.33;;;;;;;19.72;47.93;101374.56;5055151;28;20049;-66
2022/09/17 09:54:11;;;;;;;7.63;1.13;;;;;;;19.55;46.96;101381.72;5071757;28;20165;-66
2022/09/17 09:56:53;;;;;;;3.63;0.70;;;;;;;19.28;47.31;101393.44;5034713;28;20052;-65
2022/09/17 09:59:20;;;;;;;5.03;0.60;;;;;;;19.05;47.22;101403.03;5072674;28;20045;-64
2022/09/17 10:01:47;;;;;;;3.80;0.90;;;;;;;18.82;47.74;101408.00;5071438;28;20445;-65
2022/09/17 10:04:22;;;;;;;2.88;0.50;;;;;;;18.60;48.07;101400.16;5085531;28;20036;-64
2022/09/17 10:06:51;;;;;;;2.00;0.60;;;;;;;18.40;48.40;101396.59;5091919;28;20048;-65
2022/09/17 10:09:21;;;;;;;4.10;0.80;;;;;;;18.32;48.32;101400.06;5089854;28;20044;-65
2022/09/17 10:12:12;;;;;;;4.07;0.63;;;;;;;18.33;48.96;101390.91;5084488;28;20040;-64
2022/09/17 10:14:45;;;;;;;2.40;0.52;;;;;;;18.43;48.79;101389.00;5071548;28;20056;-64
2022/09/17 10:17:25;;;;;;;3.42;1.10;;;;;;;18.56;49.38;101385.13;5071071;28;20530;-66
2022/09/17 10:20:00;;;;;;;3.28;0.70;;;;;;;18.73;49.31;101392.56;5082878;28;20089;-65
2022/09/17 10:22:35;;;;;;;3.15;0.60;;;;;;;18.90;49.29;101377.31;5091239;28;20097;-65
2022/09/17 10:25:18;;;;;;;3.47;1.55;;;;;;;19.05;49.60;101375.81;5091594;28;20040;-65
2022/09/17 10:27:47;;;;;;;3.25;0.80;;;;;;;19.24;49.39;101377.56;5091150;28;20048;-64
2022/09/17 10:30:16;;;;;;;3.88;0.98;;;;;;;19.41;49.38;101378.66;5075882;28;20048;-65
2022/09/17 10:32:43;;;;;;;2.45;0.60;;;;;;;19.52;49.22;101372.97;5052861;28;20467;-66
2022/09/17 10:35:17;;;;;;;3.45;0.63;;;;;;;19.63;49.11;101370.06;5071415;28;20109;-65
2022/09/17 10:37:48;;;;;;;4.40;1.20;;;;;;;19.76;49.15;101370.53;5071073;28;20036;-65
2022/09/17 10:40:18;;;;;;;3.33;1.00;;;;;;;19.90;49.05;101358.22;5072200;28;20044;-64
2022/09/17 10:42:50;;;;;;;1.92;0.80;;;;;;;20.05;48.73;101372.16;5070768;28;20542;-64
2022/09/17 10:45:28;;;;;;;4.10;0.68;;;;;;;20.19;48.37;101360.69;5071097;28;20094;-64
2022/09/17 10:47:57;;;;;;;4.30;0.82;;;;;;;20.34;48.46;101352.78;5083341;28;20044;-64
2022/09/17 10:50:33;;;;;;;2.53;0.85;;;;;;;20.48;48.22;101358.56;5090970;28;20094;-65
2022/09/17 10:53:04;;;;;;;2.63;0.52;;;;;;;20.63;47.68;101359.66;5091195;28;20055;-65
2022/09/17 10:55:38;;;;;;;3.88;1.00;;;;;;;20.76;47.08;101353.75;5089430;28;20398;-64
2022/09/17 10:58:06;;;;;;;2.97;0.88;;;;;;;20.83;46.77;101348.53;5073066;28;20097;-64
2022/09/17 11:00:42;;;;;;;1.88;0.50;;;;;;;20.94;46.55;101348.25;5091008;28;20585;-65
2022/09/17 11:03:51;;;;;;;2.60;0.60;;;;;;;21.08;46.35;101344.03;5090734;28;20498;-65
2022/09/17 11:06:56;;;;;;;2.92;0.80;;;;;;;21.18;45.59;101337.41;5072446;28;20040;-65
2022/09/17 11:09:22;;;;;;;2.35;0.60;;;;;;;21.22;45.17;101341.53;5090691;28;20433;-65
2022/09/17 11:11:48;;;;;;;3.55;0.70;;;;;;;21.21;44.85;101347.16;5087427;28;20042;-65
2022/09/17 11:14:30;;;;;;;2.33;0.80;;;;;;;21.17;44.44;101343.03;5061782;28;20044;-65
2022/09/17 11:17:14;;;;;;;2.30;0.65;;;;;;;21.18;44.22;101331.94;5075674;28;20032;-63
2022/09/17 11:20:00;;;;;;;3.87;0.70;;;;;;;21.22;44.38;101332.47;5068811;28;20045;-65
2022/09/17 11:22:45;;;;;;;;;;;;;;;21.27;44.60;101329.25;5069187;28;20313;-64
2022/09/17 11:25:53;;;;;;;1.50;0.45;;;;;;;21.27;44.12;101330.13;5070651;28;20382;-65
2022/09/17 11:28:56;;;;;;;4.72;0.80;;;;;;;21.22;44.67;101338.81;5070728;28;20087;-64
2022/09/17 11:31:50;;;;;;;5.10;0.60;;;;;;;21.09;44.69;101352.06;5072652;28;20049;-65
2022/09/17 11:34:41;;;;;;;4.10;0.88;;;;;;;20.79;45.16;101350.69;5056760;28;20043;-63
2022/09/17 11:37:08;;;;;;;6.72;1.00;;;;;;;20.59;45.35;101349.22;5071314;28;20070;-62
2022/09/17 11:39:48;;;;;;;3.78;1.30;;;;;;;20.39;45.59;101351.31;5060196;28;20487;-63
2022/09/17 11:42:22;;;;;;;3.25;0.95;;;;;;;20.19;46.33;101350.66;5058741;28;20052;-63
2022/09/17 11:45:18;;;;;;;3.93;1.20;;;;;;;20.06;46.55;101341.13;5054383;28;20518;-63
2022/09/17 11:47:55;;;;;;;22.23;13.98;;;;;;;20.10;46.99;101346.16;5023716;28;20349;-63
2022/09/17 11:50:28;;;;;;;4.82;1.25;;;;;;;20.22;47.27;101333.97;5058771;28;20040;-64
2022/09/17 11:53:14;;;;;;;2.80;0.93;;;;;;;20.40;47.75;101335.81;5059779;28;20040;-64